»·PEaware :: N7294S KMHV-KSBD

N7294S :: KMHV-KSBD

FLIGHT INFORMATION

Flight Status: Arrived
Operator: Privately registered:
United States
More flights under this callsign
Pilot: Vladimir K. (41412)
Aircraft: PIPER PA-24 COMMANCHE
(PA24)
More flights by this aircraft type
Origin: KMHV Mojave
United States
Destination: KSBD San Bernardino Intl
United States
More flights between these airports :: More routes between these airports
Route: PMD V137 HESPE VPLCP VPLLU
File this flight plan on PilotEdge
Remarks:
Altitude:
(Current/Filed)
11,000ft
Speed:
(Current/Filed)
150kts
Departed: 29-Jul-23 06:28 AM
Arrived: 29-Jul-23 07:17 AM
Distance/Time
Traveled:
73nm/0:49
Distance/Time
To Go:
Arrived

Flight Plot

Page will automatically refresh every two minutes.

Flight plan parsing failed; only flown route is shown


Map Options




Map Legend


Flown Route
Filed Route
Departure Airport
Arrival Airport
Navaid (VOR, NDB)
Fix

Horizontal Profiles

Position Reports

Time Latitude Longitude Heading Altitude Ground
Speed
29-Jul-23 06:01 35.057200 -118.154325 91 2755ft 0kts
29-Jul-23 06:02 35.057200 -118.154325 91 2755ft 0kts
29-Jul-23 06:03 35.057200 -118.154325 91 2755ft 0kts
29-Jul-23 06:04 35.057200 -118.154325 91 2755ft 0kts
29-Jul-23 06:05 35.057200 -118.154325 91 2755ft 0kts
29-Jul-23 06:06 35.057200 -118.154325 91 2755ft 0kts
29-Jul-23 06:07 35.057200 -118.154325 91 2755ft 0kts
29-Jul-23 06:08 35.057200 -118.154325 91 2755ft 0kts
29-Jul-23 06:09 35.057200 -118.154325 91 2755ft 0kts
29-Jul-23 06:10 35.057200 -118.154325 91 2755ft 0kts
29-Jul-23 06:11 35.057200 -118.154325 91 2755ft 0kts
29-Jul-23 06:12 35.057200 -118.154325 91 2755ft 0kts
29-Jul-23 06:13 35.057200 -118.154325 91 2755ft 0kts
29-Jul-23 06:14 35.057200 -118.154325 91 2755ft 0kts
29-Jul-23 06:16 35.057200 -118.154325 91 2755ft 0kts
29-Jul-23 06:17 35.057200 -118.154325 91 2755ft 0kts
29-Jul-23 06:18 35.057200 -118.154325 91 2755ft 0kts
29-Jul-23 06:19 35.057200 -118.154325 91 2755ft 0kts
29-Jul-23 06:20 35.057230 -118.153923 69 2754ft 5kts
29-Jul-23 06:21 35.057638 -118.151240 91 2752ft 8kts
29-Jul-23 06:22 35.057612 -118.148230 89 2754ft 14kts
29-Jul-23 06:23 35.057614 -118.144657 91 2751ft 11kts
29-Jul-23 06:24 35.058426 -118.142571 0 2739ft 0kts
29-Jul-23 06:25 35.058426 -118.142571 0 2739ft 0kts
29-Jul-23 06:26 35.058426 -118.142571 0 2739ft 0kts
29-Jul-23 06:27 35.059193 -118.143116 268 2741ft 0kts
29-Jul-23 06:28 35.060097 -118.165197 271 3282ft 80kts
29-Jul-23 06:29 35.063412 -118.191635 317 3943ft 79kts
29-Jul-23 06:30 35.062488 -118.177012 176 4472ft 85kts
29-Jul-23 06:31 35.038215 -118.175197 181 4930ft 87kts
29-Jul-23 06:32 35.013723 -118.172049 166 5327ft 90kts
29-Jul-23 06:33 34.990292 -118.161075 158 5742ft 89kts
29-Jul-23 06:34 34.967404 -118.148358 164 6245ft 90kts
29-Jul-23 06:35 34.943400 -118.136451 165 6617ft 97kts
29-Jul-23 06:36 34.917412 -118.132241 172 6966ft 95kts
29-Jul-23 06:37 34.891350 -118.126109 177 7330ft 95kts
29-Jul-23 06:38 34.865335 -118.118945 168 7679ft 97kts
29-Jul-23 06:39 34.839423 -118.109890 170 8022ft 97kts
29-Jul-23 06:40 34.813281 -118.101651 170 8341ft 98kts
29-Jul-23 06:41 34.786749 -118.096329 176 8662ft 97kts
29-Jul-23 06:41 34.764670 -118.091973 174 8941ft 96kts
29-Jul-23 06:43 34.733792 -118.083509 175 9327ft 97kts
29-Jul-23 06:44 34.707021 -118.081023 188 9633ft 95kts
29-Jul-23 06:45 34.680567 -118.080833 170 9895ft 98kts
29-Jul-23 06:46 34.654383 -118.070129 164 10140ft 99kts
29-Jul-23 06:46 34.633003 -118.059815 140 10282ft 103kts
29-Jul-23 06:47 34.618888 -118.028329 132 10571ft 104kts
29-Jul-23 06:48 34.601384 -118.000044 121 10804ft 107kts
29-Jul-23 06:50 34.585381 -117.961908 123 11034ft 111kts
29-Jul-23 06:51 34.569918 -117.929035 129 11037ft 111kts
29-Jul-23 06:51 34.556467 -117.901897 124 11021ft 113kts
29-Jul-23 06:52 34.541050 -117.868628 125 11006ft 113kts
29-Jul-23 06:53 34.524841 -117.836007 123 10997ft 113kts
29-Jul-23 06:54 34.509452 -117.802845 126 10997ft 112kts
29-Jul-23 06:55 34.494667 -117.769115 121 10979ft 113kts
29-Jul-23 06:56 34.480258 -117.735179 123 10988ft 113kts
29-Jul-23 06:57 34.465297 -117.701557 123 10997ft 112kts
29-Jul-23 06:58 34.450188 -117.668185 123 11007ft 112kts
29-Jul-23 06:59 34.434970 -117.634979 124 11020ft 112kts
29-Jul-23 07:00 34.419707 -117.601867 124 11027ft 113kts
29-Jul-23 07:01 34.404424 -117.568674 124 11025ft 112kts
29-Jul-23 07:02 34.389111 -117.535632 125 11015ft 112kts
29-Jul-23 07:03 34.369307 -117.506030 137 10608ft 114kts
29-Jul-23 07:04 34.344411 -117.483777 155 10184ft 111kts
29-Jul-23 07:05 34.315535 -117.471250 169 9724ft 110kts
29-Jul-23 07:06 34.285580 -117.461423 163 9251ft 112kts
29-Jul-23 07:07 34.257657 -117.442292 140 8639ft 116kts
29-Jul-23 07:08 34.234266 -117.415116 125 8077ft 118kts
29-Jul-23 07:09 34.210714 -117.388297 140 7544ft 116kts
29-Jul-23 07:10 34.185901 -117.363359 144 6981ft 115kts
29-Jul-23 07:11 34.160762 -117.339353 128 6263ft 115kts
29-Jul-23 07:12 34.144216 -117.305922 109 5480ft 117kts
29-Jul-23 07:13 34.119455 -117.284596 165 4385ft 101kts
29-Jul-23 07:14 34.092717 -117.278669 172 3104ft 93kts
29-Jul-23 07:15 34.090155 -117.253164 73 1508ft 93kts
29-Jul-23 07:16 34.095252 -117.235887 22 1117ft 6kts
29-Jul-23 07:17 34.096859 -117.236066 62 1123ft 8kts
29-Jul-23 07:18 34.097607 -117.233554 70 1130ft 10kts
29-Jul-23 07:19 34.098478 -117.230628 70 1137ft 8kts
29-Jul-23 07:20 34.099560 -117.227055 70 1145ft 6kts
29-Jul-23 07:21 34.100366 -117.225405 39 1150ft 7kts
29-Jul-23 07:22 34.101351 -117.224718 267 1152ft 3kts
29-Jul-23 07:23 34.101348 -117.224785 265 1152ft 0kts
29-Jul-23 07:24 34.101348 -117.224785 265 1152ft 0kts
29-Jul-23 07:25 34.101348 -117.224785 265 1152ft 0kts
29-Jul-23 07:26 34.101348 -117.224785 265 1152ft 0kts

Navigation Log

Ident Type
Flight plan parsing failed, navigation log unavailable